Time;durP1;ratioP1;P1;durP2;ratioP2;P2;SDS_P1;SDS_P2;PMS_P1;PMS_P2;Temp;Humidity;BMP_temperature;BMP_pressure;BME280_temperature;BME280_humidity;BME280_pressure;Samples;Min_cycle;Max_cycle;Signal;HPM_P1;HPM_P2
2022/02/23 11:09:54;;;;;;;19.40;3.78;;;8.20;91.40;;;;;;5069285;28;20947;-53
2022/02/23 11:12:23;;;;;;;18.40;4.00;;;8.30;91.30;;;;;;5045185;28;20052;-48
2022/02/23 11:14:49;;;;;;;17.80;3.78;;;8.40;91.30;;;;;;5050855;28;20045;-46
2022/02/23 11:17:16;;;;;;;21.48;4.10;;;8.50;90.50;;;;;;5064935;28;20512;-47
2022/02/23 11:19:43;;;;;;;18.17;4.13;;;8.60;90.80;;;;;;5044175;28;20037;-44
2022/02/23 11:22:10;;;;;;;19.88;3.63;;;8.70;90.60;;;;;;5044172;28;20520;-47
2022/02/23 11:24:39;;;;;;;13.05;2.83;;;8.80;88.70;;;;;;5048801;28;20037;-48
2022/02/23 11:27:05;;;;;;;15.25;2.92;;;8.80;87.30;;;;;;5039220;28;20052;-42
2022/02/23 11:29:33;;;;;;;16.45;3.17;;;8.80;86.70;;;;;;5069139;28;20045;-48
2022/02/23 11:31:59;;;;;;;17.88;3.22;;;8.80;86.80;;;;;;5062143;28;20048;-47
2022/02/23 11:34:26;;;;;;;15.23;2.95;;;8.80;87.50;;;;;;5049942;28;20065;-46
2022/02/23 11:36:53;;;;;;;17.73;3.28;;;8.90;86.90;;;;;;5049759;28;20401;-48
2022/02/23 11:39:20;;;;;;;14.13;3.42;;;9.00;88.20;;;;;;5054272;28;20040;-48
2022/02/23 11:41:48;;;;;;;15.25;3.20;;;9.00;87.50;;;;;;5068925;28;20044;-48
2022/02/23 11:44:15;;;;;;;21.23;4.18;;;9.10;87.80;;;;;;5068791;28;20041;-51
2022/02/23 11:46:42;;;;;;;19.30;3.53;;;9.20;87.30;;;;;;5068722;28;20064;-55
2022/02/23 11:49:09;;;;;;;17.55;3.47;;;9.20;88.10;;;;;;5068768;28;20037;-46
2022/02/23 11:51:37;;;;;;;17.85;3.33;;;9.30;87.70;;;;;;5068915;28;20090;-44
2022/02/23 11:54:05;;;;;;;14.93;3.53;;;9.40;87.80;;;;;;5068637;28;20082;-45
2022/02/23 11:56:32;;;;;;;15.50;3.28;;;9.60;86.40;;;;;;5068502;28;20044;-48
2022/02/23 11:59:16;;;;;;;14.40;3.30;;;9.60;86.00;;;;;;5058514;28;20042;-44
2022/02/23 12:01:43;;;;;;;16.08;3.33;;;9.80;85.60;;;;;;5048868;28;20041;-51
2022/02/23 12:04:12;;;;;;;16.15;3.25;;;9.80;84.40;;;;;;5049351;28;20073;-45
2022/02/23 12:06:39;;;;;;;16.08;3.17;;;9.90;83.30;;;;;;5049116;28;20112;-45
2022/02/23 12:09:06;;;;;;;13.00;3.15;;;9.90;83.10;;;;;;5055810;28;20102;-48
2022/02/23 12:11:34;;;;;;;15.27;3.00;;;9.90;82.90;;;;;;5050369;28;20033;-49
2022/02/23 12:14:01;;;;;;;16.38;3.13;;;10.00;82.00;;;;;;5053639;28;20590;-45
2022/02/23 12:16:28;;;;;;;14.40;3.17;;;10.00;81.20;;;;;;5057273;28;20045;-44
2022/02/23 12:18:56;;;;;;;12.90;3.30;;;10.00;81.10;;;;;;5049273;28;20038;-48
2022/02/23 12:21:23;;;;;;;12.02;3.05;;;10.00;80.80;;;;;;5035508;28;20492;-52
2022/02/23 12:23:50;;;;;;;16.15;3.30;;;10.00;81.70;;;;;;5035864;28;20045;-47
2022/02/23 12:26:17;;;;;;;14.05;3.10;;;10.10;81.80;;;;;;5035635;28;20488;-48
2022/02/23 12:28:47;;;;;;;17.27;4.10;;;10.10;81.80;;;;;;5046022;28;20049;-47
2022/02/23 12:31:14;;;;;;;13.88;3.63;;;10.20;82.00;;;;;;5054999;28;20068;-45
2022/02/23 12:33:41;;;;;;;11.52;2.83;;;10.20;80.80;;;;;;5037036;28;20033;-46
2022/02/23 12:36:28;;;;;;;16.02;3.22;;;10.30;81.10;;;;;;5042196;28;20045;-44
2022/02/23 12:38:56;;;;;;;15.57;3.13;;;10.20;79.60;;;;;;5047236;28;20046;-52
2022/02/23 12:41:23;;;;;;;14.77;2.90;;;10.20;80.00;;;;;;5038979;28;20511;-45
2022/02/23 12:43:50;;;;;;;16.00;3.10;;;10.20;78.40;;;;;;5054768;28;20124;-46
2022/02/23 12:46:17;;;;;;;17.92;3.13;;;10.20;78.10;;;;;;5054267;28;20053;-46
2022/02/23 12:48:45;;;;;;;12.73;3.20;;;10.20;77.50;;;;;;5054504;28;20041;-46
2022/02/23 12:51:12;;;;;;;15.05;3.33;;;10.20;78.10;;;;;;5054499;28;20041;-53
2022/02/23 12:53:39;;;;;;;12.75;3.00;;;10.20;77.80;;;;;;5054586;28;20095;-47
2022/02/23 12:56:05;;;;;;;10.32;2.58;;;10.30;77.90;;;;;;5053035;28;20383;-48
2022/02/23 12:58:32;;;;;;;12.68;2.90;;;10.50;78.50;;;;;;5054526;28;20094;-45
2022/02/23 13:00:59;;;;;;;12.80;3.17;;;10.60;77.20;;;;;;5054399;28;20048;-52
2022/02/23 13:03:26;;;;;;;14.95;3.78;;;10.70;75.70;;;;;;5054393;28;20411;-49
2022/02/23 13:05:52;;;;;;;12.68;3.00;;;10.70;74.80;;;;;;5054180;28;20040;-47
2022/02/23 13:08:19;;;;;;;15.50;3.72;;;10.80;75.30;;;;;;5047697;28;20053;-50
2022/02/23 13:10:46;;;;;;;14.75;3.55;;;10.80;73.80;;;;;;5043717;28;20344;-49
2022/02/23 13:13:13;;;;;;;12.15;2.75;;;10.80;74.80;;;;;;5028656;28;20038;-46
2022/02/23 13:15:40;;;;;;;9.95;2.53;;;10.80;74.10;;;;;;5028498;28;20038;-45
2022/02/23 13:18:07;;;;;;;13.65;3.13;;;10.80;74.10;;;;;;5028191;28;20546;-49
2022/02/23 13:20:34;;;;;;;16.17;2.78;;;10.80;75.00;;;;;;5047983;28;20041;-45
2022/02/23 13:23:01;;;;;;;17.63;2.85;;;10.80;74.80;;;;;;5041128;28;20060;-44
2022/02/23 13:25:28;;;;;;;10.75;2.53;;;10.80;75.20;;;;;;5034992;28;20099;-46
2022/02/23 13:28:00;;;;;;;10.52;2.35;;;10.80;75.00;;;;;;5034275;28;20034;-45
2022/02/23 13:30:29;;;;;;;12.73;3.20;;;10.80;75.50;;;;;;5041539;28;20044;-45
2022/02/23 13:32:56;;;;;;;11.77;2.90;;;10.80;74.60;;;;;;5052695;28;20037;-49
2022/02/23 16:26:17;;;;;;;18.65;3.50;;;8.90;93.10;;;;;;5110637;27;20774;-46
2022/02/23 16:28:44;;;;;;;20.10;4.13;;;8.90;93.30;;;;;;5091072;28;20040;-47
2022/02/23 16:31:11;;;;;;;19.67;3.85;;;8.90;93.20;;;;;;5109624;28;20036;-47
2022/02/23 16:33:38;;;;;;;16.90;4.03;;;8.90;92.80;;;;;;5092135;28;20089;-44
2022/02/23 16:36:05;;;;;;;19.63;5.15;;;9.00;92.30;;;;;;5115636;28;20084;-43
2022/02/23 16:38:31;;;;;;;15.68;3.92;;;9.10;91.80;;;;;;5110934;28;20046;-45
2022/02/23 16:40:58;;;;;;;19.48;4.40;;;9.10;91.20;;;;;;5111031;28;21179;-46
2022/02/23 16:43:25;;;;;;;12.68;2.85;;;9.10;91.10;;;;;;5110401;28;20093;-46
2022/02/23 16:45:52;;;;;;;22.02;6.20;;;9.10;90.80;;;;;;5110497;28;20036;-50
2022/02/23 16:48:18;;;;;;;15.50;4.07;;;9.20;90.80;;;;;;5113642;28;20039;-47
2022/02/23 16:50:45;;;;;;;13.70;3.83;;;9.10;90.80;;;;;;5109966;28;20482;-53
2022/02/23 16:53:12;;;;;;;18.40;4.28;;;9.20;90.50;;;;;;5109710;28;20490;-47
2022/02/23 16:55:41;;;;;;;15.90;4.55;;;9.20;90.50;;;;;;5109533;28;20040;-49
2022/02/23 16:58:07;;;;;;;11.13;3.95;;;9.20;90.40;;;;;;5110270;28;20036;-48
2022/02/23 17:00:34;;;;;;;17.17;4.60;;;9.20;90.40;;;;;;5110124;28;20063;-48
2022/02/23 17:03:01;;;;;;;21.48;7.70;;;9.20;90.60;;;;;;5109912;28;20077;-45
2022/02/23 17:05:28;;;;;;;16.35;5.22;;;9.20;90.70;;;;;;5109893;28;20172;-44
2022/02/23 17:07:54;;;;;;;19.33;5.00;;;9.30;90.70;;;;;;5110352;28;20137;-43
2022/02/23 17:10:21;;;;;;;18.23;5.10;;;9.30;91.20;;;;;;5110226;28;20093;-45
2022/02/23 17:12:48;;;;;;;22.35;8.02;;;9.20;91.60;;;;;;5110117;28;20427;-46
2022/02/23 17:15:17;;;;;;;17.30;4.45;;;9.20;91.50;;;;;;5110282;28;20040;-50
2022/02/23 17:17:44;;;;;;;17.40;4.30;;;9.20;91.80;;;;;;5114560;28;20044;-47
2022/02/23 17:20:11;;;;;;;17.60;4.00;;;9.10;91.80;;;;;;5093682;28;20048;-46
2022/02/23 17:22:39;;;;;;;13.15;3.30;;;9.20;91.90;;;;;;5110274;28;20048;-49
2022/02/23 17:25:06;;;;;;;18.50;4.22;;;9.10;92.20;;;;;;5109742;28;20157;-51
2022/02/23 17:27:33;;;;;;;17.73;4.18;;;9.10;91.80;;;;;;5109655;28;20036;-50
2022/02/23 17:30:00;;;;;;;10.65;2.83;;;9.10;91.80;;;;;;5109482;28;20069;-44
2022/02/23 17:32:26;;;;;;;20.02;4.78;;;9.10;91.90;;;;;;5109347;28;20036;-47
2022/02/23 17:34:53;;;;;;;14.80;3.70;;;9.10;91.80;;;;;;5109455;28;20048;-43
2022/02/23 17:37:20;;;;;;;16.90;4.57;;;9.10;92.20;;;;;;5097478;28;20118;-47
2022/02/23 17:39:47;;;;;;;19.10;4.60;;;9.10;92.00;;;;;;5096030;28;20044;-52
2022/02/23 17:42:16;;;;;;;25.90;5.32;;;9.10;91.90;;;;;;5096126;28;20056;-50
2022/02/23 17:44:43;;;;;;;21.48;4.03;;;9.00;91.80;;;;;;5095856;28;20036;-44
2022/02/23 17:47:10;;;;;;;20.73;4.28;;;9.00;92.10;;;;;;5095582;28;20141;-46
2022/02/23 17:49:48;;;;;;;19.95;4.43;;;9.10;92.30;;;;;;5095207;28;20033;-45
2022/02/23 17:52:21;;;;;;;22.17;5.72;;;9.10;92.10;;;;;;5096009;28;20036;-44
2022/02/23 17:54:49;;;;;;;21.27;5.18;;;9.00;92.00;;;;;;5089224;28;20450;-45
2022/02/23 17:57:15;;;;;;;22.02;7.35;;;9.00;92.10;;;;;;5095715;28;20096;-46
2022/02/23 17:59:42;;;;;;;22.00;5.57;;;9.00;91.70;;;;;;5095593;28;20087;-46
2022/02/23 18:02:09;;;;;;;19.77;4.82;;;9.00;91.80;;;;;;5095916;28;20050;-49
2022/02/23 18:04:36;;;;;;;23.13;5.68;;;9.00;91.90;;;;;;5095093;28;20115;-46
2022/02/23 18:07:03;;;;;;;22.70;5.35;;;9.00;91.60;;;;;;5095216;28;20050;-51
2022/02/23 18:09:30;;;;;;;25.20;4.68;;;9.00;91.60;;;;;;5099626;28;20084;-43
2022/02/23 18:11:57;;;;;;;19.35;4.53;;;9.00;91.60;;;;;;5095069;28;20441;-44
2022/02/23 18:14:24;;;;;;;23.33;5.65;;;9.00;91.50;;;;;;5094468;28;20043;-44
2022/02/23 18:16:51;;;;;;;26.83;10.60;;;9.00;91.50;;;;;;5094821;28;20044;-43
2022/02/23 18:19:18;;;;;;;21.83;5.07;;;9.00;91.60;;;;;;5099594;28;20039;-49
2022/02/23 18:21:44;;;;;;;21.10;4.45;;;9.00;91.30;;;;;;5094417;28;20093;-43
2022/02/23 18:24:11;;;;;;;24.63;4.32;;;9.00;91.10;;;;;;5094837;28;20040;-52
2022/02/23 18:26:41;;;;;;;22.08;4.10;;;9.00;91.00;;;;;;5094972;28;20044;-46
2022/02/23 18:29:08;;;;;;;19.77;4.22;;;9.00;91.10;;;;;;5095108;28;20081;-44
2022/02/23 18:31:34;;;;;;;24.98;3.95;;;8.90;90.90;;;;;;5094874;28;20097;-47
2022/02/23 18:34:04;;;;;;;19.20;4.35;;;8.90;90.90;;;;;;5094487;28;20390;-45
2022/02/23 18:36:31;;;;;;;19.70;4.10;;;8.90;91.00;;;;;;5094794;28;20395;-44
2022/02/23 18:38:58;;;;;;;24.38;4.82;;;8.80;91.10;;;;;;5094370;28;20047;-43
2022/02/23 18:41:24;;;;;;;17.98;3.58;;;8.80;91.10;;;;;;5094788;28;20052;-49
2022/02/23 18:43:51;;;;;;;20.88;3.95;;;8.70;91.30;;;;;;5094388;28;20403;-46
2022/02/23 18:46:18;;;;;;;22.45;4.35;;;8.70;91.40;;;;;;5094365;28;20093;-48
2022/02/23 18:48:45;;;;;;;21.52;4.10;;;8.70;91.40;;;;;;5093602;28;20041;-48
2022/02/23 18:51:14;;;;;;;19.98;4.85;;;8.70;91.50;;;;;;5094191;28;20510;-41
2022/02/23 18:53:41;;;;;;;16.63;3.88;;;8.70;91.80;;;;;;5094237;28;20364;-43
2022/02/23 18:56:08;;;;;;;21.92;4.38;;;8.80;91.50;;;;;;5094545;28;20040;-48
2022/02/23 18:58:35;;;;;;;18.05;4.15;;;8.80;91.30;;;;;;5094128;28;20039;-45
2022/02/23 19:01:02;;;;;;;23.85;4.20;;;8.80;91.30;;;;;;5094390;28;20079;-46
2022/02/23 19:03:50;;;;;;;21.98;3.70;;;8.80;91.30;;;;;;5093421;28;20488;-43
2022/02/23 19:06:20;;;;;;;18.27;3.58;;;8.90;91.60;;;;;;5094044;28;20045;-42
2022/02/23 19:08:47;;;;;;;18.67;3.72;;;8.80;91.20;;;;;;5094213;28;20038;-43
2022/02/23 19:11:13;;;;;;;15.77;4.07;;;8.80;91.30;;;;;;5094126;28;20044;-47
2022/02/23 19:13:40;;;;;;;18.38;4.18;;;8.80;91.30;;;;;;5093994;28;20058;-43
2022/02/23 19:16:07;;;;;;;16.30;3.15;;;8.80;91.40;;;;;;5093684;28;20445;-42
2022/02/23 19:18:35;;;;;;;14.70;3.15;;;8.70;91.30;;;;;;5095524;28;20372;-44
2022/02/23 19:21:02;;;;;;;20.13;3.67;;;8.60;91.50;;;;;;5105502;28;20044;-42
2022/02/23 19:23:29;;;;;;;17.02;3.40;;;8.50;91.70;;;;;;5093929;28;20073;-44
2022/02/23 19:25:55;;;;;;;17.10;3.85;;;8.50;91.70;;;;;;5093670;28;20105;-47
2022/02/23 19:28:25;;;;;;;19.08;4.55;;;8.40;92.00;;;;;;5093910;28;20055;-42
2022/02/23 19:30:52;;;;;;;18.70;4.95;;;8.40;92.20;;;;;;5097180;28;20036;-44
2022/02/23 19:33:19;;;;;;;15.55;4.03;;;8.40;92.30;;;;;;5094080;28;20044;-46
2022/02/23 19:35:46;;;;;;;19.35;3.30;;;8.40;92.40;;;;;;5093954;28;20039;-44
2022/02/23 19:38:12;;;;;;;16.50;3.75;;;8.40;92.50;;;;;;5094237;28;20084;-42
2022/02/23 19:40:39;;;;;;;16.27;3.90;;;8.30;92.60;;;;;;5093493;28;20059;-50
2022/02/23 19:43:06;;;;;;;22.23;4.30;;;8.30;92.80;;;;;;5093397;28;20053;-45
2022/02/23 19:45:33;;;;;;;19.52;3.65;;;8.30;92.70;;;;;;5093399;28;20086;-43
2022/02/23 19:47:59;;;;;;;14.85;3.78;;;8.30;92.80;;;;;;5093247;28;20040;-41
2022/02/23 19:50:26;;;;;;;16.65;3.60;;;8.20;92.80;;;;;;5093135;28;20521;-43
2022/02/23 19:52:53;;;;;;;17.02;3.63;;;8.20;92.80;;;;;;5098622;28;20082;-48
2022/02/23 19:55:20;;;;;;;18.13;4.00;;;8.10;92.80;;;;;;5093325;28;20048;-46
2022/02/23 19:57:46;;;;;;;18.40;4.32;;;8.10;93.00;;;;;;5093194;28;20040;-48
2022/02/23 20:00:13;;;;;;;17.88;4.70;;;8.10;93.10;;;;;;5079529;28;20048;-46
2022/02/23 20:02:40;;;;;;;15.65;4.50;;;8.10;93.10;;;;;;5086951;28;20044;-49
2022/02/23 20:05:07;;;;;;;17.23;5.00;;;8.00;93.10;;;;;;5094457;28;20040;-50
2022/02/23 20:07:34;;;;;;;16.88;4.32;;;8.00;93.20;;;;;;5093375;28;20058;-43
2022/02/23 20:10:01;;;;;;;18.45;4.82;;;8.00;93.20;;;;;;5093151;28;20066;-48
2022/02/23 20:12:28;;;;;;;22.40;5.38;;;7.90;93.20;;;;;;5093210;28;20036;-44
2022/02/23 20:14:55;;;;;;;18.45;4.90;;;7.90;93.30;;;;;;5092843;28;20063;-44
2022/02/23 20:17:21;;;;;;;15.73;4.70;;;7.90;93.40;;;;;;5093267;28;20089;-43
2022/02/23 20:19:48;;;;;;;16.63;4.63;;;7.90;93.40;;;;;;5093045;28;20070;-43
2022/02/23 20:22:15;;;;;;;17.65;4.22;;;7.90;93.60;;;;;;5093244;28;20047;-43
2022/02/23 20:24:42;;;;;;;19.08;3.85;;;7.90;93.70;;;;;;5092802;28;20078;-50
2022/02/23 20:27:09;;;;;;;31.55;11.40;;;7.90;93.70;;;;;;5096513;28;20040;-45
2022/02/23 20:29:36;;;;;;;19.42;7.68;;;7.90;93.70;;;;;;5092972;28;20040;-41
2022/02/23 20:32:05;;;;;;;21.88;8.95;;;7.80;93.90;;;;;;5093093;28;20059;-48
2022/02/23 20:34:32;;;;;;;18.88;4.32;;;7.80;94.00;;;;;;5092955;28;20040;-43
2022/02/23 20:36:58;;;;;;;16.00;3.72;;;7.90;94.10;;;;;;5093058;28;20479;-43
2022/02/23 20:39:25;;;;;;;17.60;4.18;;;7.90;94.10;;;;;;5092771;28;20043;-44
2022/02/23 20:41:53;;;;;;;16.35;3.78;;;7.90;94.20;;;;;;5074671;28;20490;-45
2022/02/23 20:44:19;;;;;;;20.65;4.75;;;8.00;94.20;;;;;;5092945;28;20441;-48
2022/02/23 20:46:46;;;;;;;19.50;4.22;;;8.00;94.00;;;;;;5092734;28;20429;-49
2022/02/23 20:49:13;;;;;;;25.60;5.57;;;8.00;94.10;;;;;;5092723;28;20074;-51
2022/02/23 20:51:40;;;;;;;25.98;6.68;;;8.10;94.00;;;;;;5093485;28;20525;-49
2022/02/23 20:54:07;;;;;;;25.25;6.00;;;8.20;93.90;;;;;;5092606;28;20048;-42
2022/02/23 20:56:34;;;;;;;18.35;5.70;;;8.20;93.80;;;;;;5092579;28;20047;-46
2022/02/23 20:59:00;;;;;;;18.42;5.25;;;8.20;94.00;;;;;;5092681;28;20089;-43
2022/02/23 21:01:27;;;;;;;18.85;4.38;;;8.20;93.90;;;;;;5092997;28;20371;-45
2022/02/23 21:03:54;;;;;;;18.85;4.30;;;8.10;93.90;;;;;;5092251;28;20115;-46
2022/02/23 21:06:21;;;;;;;16.92;4.05;;;8.10;94.00;;;;;;5092730;28;20048;-43
2022/02/23 21:08:48;;;;;;;18.00;4.43;;;8.00;94.00;;;;;;5092024;28;20029;-46
2022/02/23 21:11:15;;;;;;;18.33;4.70;;;8.00;94.10;;;;;;5091632;28;20040;-42
2022/02/23 21:13:42;;;;;;;17.15;4.00;;;8.00;94.20;;;;;;5095763;28;20042;-46
2022/02/23 21:16:09;;;;;;;15.75;4.28;;;7.90;94.10;;;;;;5100421;28;20128;-46
2022/02/23 21:18:36;;;;;;;17.38;4.88;;;7.90;94.10;;;;;;5095189;28;20582;-47
2022/02/23 21:21:03;;;;;;;21.00;4.60;;;7.90;94.10;;;;;;5090656;28;20036;-42
2022/02/23 21:23:29;;;;;;;19.90;4.75;;;7.90;94.10;;;;;;5096162;28;20043;-47
2022/02/23 21:25:56;;;;;;;17.48;3.75;;;7.90;94.10;;;;;;5097587;28;20052;-46
2022/02/23 21:28:23;;;;;;;20.05;3.72;;;7.90;94.00;;;;;;5098521;28;20452;-49
2022/02/23 21:30:50;;;;;;;17.95;4.32;;;7.90;94.20;;;;;;5096225;28;20032;-51
2022/02/23 21:33:18;;;;;;;19.40;3.88;;;7.90;94.10;;;;;;5096148;28;20093;-48
2022/02/23 21:35:45;;;;;;;15.95;4.85;;;7.90;94.00;;;;;;5095824;28;20483;-49
2022/02/23 21:38:13;;;;;;;14.20;4.38;;;7.90;94.20;;;;;;5095718;28;20119;-45
2022/02/23 21:40:40;;;;;;;17.23;4.22;;;7.90;94.10;;;;;;5095728;28;20044;-45
2022/02/23 21:43:07;;;;;;;14.40;3.75;;;7.90;94.20;;;;;;5095866;28;20044;-45
2022/02/23 21:45:34;;;;;;;19.75;5.25;;;8.00;94.20;;;;;;5077805;28;20051;-46
2022/02/23 21:48:00;;;;;;;12.88;3.33;;;8.00;94.30;;;;;;5077527;28;20540;-47
2022/02/23 21:50:27;;;;;;;18.65;3.97;;;8.00;94.20;;;;;;5095532;28;20036;-53
2022/02/23 21:52:54;;;;;;;16.90;3.53;;;8.00;94.20;;;;;;5077608;28;20498;-46
2022/02/23 21:55:21;;;;;;;12.52;3.58;;;8.00;94.20;;;;;;5095444;28;20036;-52
2022/02/23 21:57:48;;;;;;;15.07;3.60;;;8.10;94.20;;;;;;5096056;28;20093;-46
2022/02/23 22:00:15;;;;;;;16.48;3.33;;;8.10;94.20;;;;;;5095303;28;20483;-45
2022/02/23 22:02:41;;;;;;;18.23;3.83;;;8.10;94.10;;;;;;5095406;28;20044;-47
2022/02/23 22:05:09;;;;;;;16.17;4.00;;;8.20;94.00;;;;;;5095320;28;20040;-44
2022/02/23 22:07:35;;;;;;;11.85;2.55;;;8.20;94.00;;;;;;5095350;28;20397;-47
2022/02/23 22:10:02;;;;;;;15.50;3.17;;;8.20;94.10;;;;;;5095270;28;20044;-45
2022/02/23 22:12:29;;;;;;;15.40;3.08;;;8.20;93.90;;;;;;5095416;28;20114;-45
2022/02/23 22:14:56;;;;;;;12.18;2.35;;;8.20;93.80;;;;;;5095118;28;20062;-48
2022/02/23 22:17:24;;;;;;;16.98;3.30;;;8.30;93.80;;;;;;5095194;28;20444;-48
2022/02/23 22:19:51;;;;;;;10.77;2.92;;;8.30;93.60;;;;;;5094789;28;20046;-45
2022/02/23 22:22:17;;;;;;;15.75;3.30;;;8.30;93.60;;;;;;5094821;28;20078;-47
